createdAt,value
2018-08-28T00:00:20.955Z,9.80
2018-08-28T00:01:20.941Z,8.30
2018-08-28T00:02:20.927Z,11.30
2018-08-28T00:03:20.911Z,9.10
2018-08-28T00:04:20.899Z,7.50
2018-08-28T00:05:20.884Z,7.00
2018-08-28T00:06:20.875Z,10.60
2018-08-28T00:07:20.858Z,8.70
2018-08-28T00:08:20.846Z,10.80
2018-08-28T00:09:20.830Z,8.00
2018-08-28T00:10:20.818Z,8.30
2018-08-28T00:11:20.805Z,9.00
2018-08-28T00:12:20.792Z,8.50
2018-08-28T00:13:20.782Z,8.00
2018-08-28T00:14:20.773Z,8.30
2018-08-28T00:15:20.749Z,7.90
2018-08-28T00:16:20.735Z,7.30
2018-08-28T00:17:20.721Z,9.00
2018-08-28T00:18:20.709Z,8.50
2018-08-28T00:19:20.699Z,10.80
2018-08-28T00:20:20.686Z,6.80
2018-08-28T00:21:20.668Z,8.30
2018-08-28T00:22:20.655Z,7.20
2018-08-28T00:23:20.641Z,9.20
2018-08-28T00:24:20.629Z,8.50
2018-08-28T00:25:20.615Z,7.00
2018-08-28T00:26:20.601Z,8.20
2018-08-28T00:27:20.585Z,7.40
2018-08-28T00:28:20.572Z,9.80
2018-08-28T00:29:20.571Z,7.30
2018-08-28T00:30:20.548Z,8.80
2018-08-28T00:31:20.533Z,6.10
2018-08-28T00:32:20.518Z,9.70
2018-08-28T00:33:20.507Z,9.30
2018-08-28T00:34:20.508Z,7.70
2018-08-28T00:35:20.491Z,8.60
2018-08-28T00:36:20.465Z,9.50
2018-08-28T00:37:20.453Z,8.30
2018-08-28T00:38:20.444Z,8.00
2018-08-28T00:39:20.424Z,9.30
2018-08-28T00:40:20.415Z,9.30
2018-08-28T00:41:20.398Z,7.60
2018-08-28T00:42:20.383Z,12.30
2018-08-28T00:43:20.369Z,9.20
2018-08-28T00:44:20.355Z,9.70
2018-08-28T00:45:20.341Z,9.10
2018-08-28T00:46:20.332Z,7.50
2018-08-28T00:47:20.315Z,8.70
2018-08-28T00:48:20.300Z,8.70
2018-08-28T00:49:20.290Z,7.50
2018-08-28T00:50:20.274Z,8.10
2018-08-28T00:51:20.261Z,8.90
2018-08-28T00:52:20.299Z,8.90
2018-08-28T00:53:20.234Z,7.80
2018-08-28T00:54:20.224Z,7.20
2018-08-28T00:55:20.204Z,8.10
2018-08-28T00:56:20.197Z,8.60
2018-08-28T00:57:20.177Z,8.50
2018-08-28T00:58:20.162Z,6.70
2018-08-28T00:59:20.152Z,7.40
2018-08-28T01:00:20.139Z,7.00
2018-08-28T01:01:20.136Z,8.40
2018-08-28T01:02:20.114Z,8.60
2018-08-28T01:03:20.099Z,5.70
2018-08-28T01:04:20.085Z,10.00
2018-08-28T01:05:20.072Z,9.60
2018-08-28T01:06:20.057Z,8.70
2018-08-28T01:07:20.042Z,7.50
2018-08-28T01:08:20.030Z,7.50
2018-08-28T01:09:20.017Z,7.60
2018-08-28T01:10:20.009Z,7.70
2018-08-28T01:11:19.988Z,8.50
2018-08-28T01:12:19.976Z,8.20
2018-08-28T01:13:19.961Z,10.30
2018-08-28T01:14:19.951Z,7.40
2018-08-28T01:15:19.934Z,11.30
2018-08-28T01:16:19.920Z,6.90
2018-08-28T01:17:19.908Z,7.90
2018-08-28T01:18:19.894Z,9.00
2018-08-28T01:19:19.888Z,8.00
2018-08-28T01:20:19.870Z,8.10
2018-08-28T01:21:19.852Z,8.00
2018-08-28T01:22:19.848Z,9.40
2018-08-28T01:23:19.830Z,7.20
2018-08-28T01:24:19.811Z,10.40
2018-08-28T01:25:19.801Z,7.20
2018-08-28T01:26:19.785Z,5.50
2018-08-28T01:27:19.771Z,6.30
2018-08-28T01:28:19.757Z,9.50
2018-08-28T01:29:19.744Z,7.90
2018-08-28T01:30:19.732Z,8.40
2018-08-28T01:31:19.721Z,7.60
2018-08-28T01:32:19.704Z,6.40
2018-08-28T01:33:19.695Z,8.60
2018-08-28T01:34:19.680Z,7.80
2018-08-28T01:35:19.663Z,8.40
2018-08-28T01:36:19.648Z,9.00
2018-08-28T01:37:19.640Z,9.50
2018-08-28T01:38:19.630Z,5.40
2018-08-28T01:39:19.609Z,8.20
2018-08-28T01:40:19.598Z,5.60
2018-08-28T01:41:19.591Z,9.10
2018-08-28T01:42:19.583Z,9.00
2018-08-28T01:43:19.553Z,8.60
2018-08-28T01:44:19.541Z,6.90
2018-08-28T01:45:19.527Z,9.20
2018-08-28T01:46:19.520Z,8.70
2018-08-28T01:47:19.502Z,8.00
2018-08-28T01:48:19.487Z,7.70
2018-08-28T01:49:19.474Z,8.30
2018-08-28T01:50:19.460Z,6.60
2018-08-28T01:51:19.447Z,9.80
2018-08-28T01:52:19.433Z,9.70
2018-08-28T01:53:19.422Z,9.50
2018-08-28T01:54:19.404Z,6.90
2018-08-28T01:55:19.394Z,7.60
2018-08-28T01:56:19.379Z,7.80
2018-08-28T01:57:19.367Z,10.30
2018-08-28T01:58:19.354Z,8.80
2018-08-28T01:59:19.337Z,8.60
2018-08-28T02:00:19.326Z,9.60
2018-08-28T02:01:19.319Z,8.70
2018-08-28T02:02:19.297Z,8.10
2018-08-28T02:03:19.283Z,7.00
2018-08-28T02:04:19.276Z,10.80
2018-08-28T02:05:19.263Z,7.10
2018-08-28T02:06:19.244Z,6.90
2018-08-28T02:07:19.230Z,9.50
2018-08-28T02:08:19.220Z,8.20
2018-08-28T02:09:19.212Z,8.30
2018-08-28T02:10:19.193Z,8.00
2018-08-28T02:11:19.175Z,6.30
2018-08-28T02:12:19.162Z,7.90
2018-08-28T02:13:19.239Z,8.60
2018-08-28T02:14:19.141Z,6.30
2018-08-28T02:15:19.119Z,7.50
2018-08-28T02:16:19.113Z,7.30
2018-08-28T02:17:19.094Z,7.70
2018-08-28T02:18:19.082Z,7.40
2018-08-28T02:19:19.065Z,8.30
2018-08-28T02:20:19.053Z,10.30
2018-08-28T02:21:19.049Z,11.10
2018-08-28T02:22:19.026Z,8.30
2018-08-28T02:23:19.014Z,8.50
2018-08-28T02:24:19.003Z,8.00
2018-08-28T02:25:18.986Z,8.20
2018-08-28T02:26:18.977Z,6.20
2018-08-28T02:27:18.958Z,7.80
2018-08-28T02:28:18.954Z,7.60
2018-08-28T02:29:18.931Z,7.80
2018-08-28T02:30:18.922Z,7.50
2018-08-28T02:31:18.905Z,6.30
2018-08-28T02:32:18.895Z,8.00
2018-08-28T02:33:18.877Z,9.70
2018-08-28T02:34:18.864Z,9.30
2018-08-28T02:35:18.849Z,8.70
2018-08-28T02:36:18.859Z,8.30
2018-08-28T02:37:18.826Z,9.60
2018-08-28T02:38:18.811Z,8.90
2018-08-28T02:39:18.799Z,7.60
2018-08-28T02:40:18.809Z,6.70
2018-08-28T02:41:18.767Z,8.90
2018-08-28T02:42:18.759Z,8.40
2018-08-28T02:43:18.744Z,7.20
2018-08-28T02:44:18.731Z,6.80
2018-08-28T02:45:18.713Z,8.30
2018-08-28T02:46:18.701Z,8.80
2018-08-28T02:47:18.685Z,6.60
2018-08-28T02:48:18.672Z,7.40
2018-08-28T02:49:18.660Z,7.90
2018-08-28T02:50:18.650Z,6.90
2018-08-28T02:51:18.640Z,8.30
2018-08-28T02:52:18.619Z,7.10
2018-08-28T02:53:18.606Z,10.70
2018-08-28T02:54:18.591Z,10.00
2018-08-28T02:55:18.579Z,7.20
2018-08-28T02:56:18.639Z,9.40
2018-08-28T02:57:18.549Z,6.50
2018-08-28T02:58:18.535Z,11.40
2018-08-28T02:59:18.527Z,9.30
2018-08-28T03:00:18.508Z,8.80
2018-08-28T03:01:18.495Z,8.50
2018-08-28T03:02:18.482Z,10.00
2018-08-28T03:03:18.470Z,8.70
2018-08-28T03:04:18.456Z,9.80
2018-08-28T03:05:18.441Z,8.40
2018-08-28T03:06:18.429Z,8.00
2018-08-28T03:07:18.416Z,8.90
2018-08-28T03:08:18.401Z,8.70
2018-08-28T03:09:18.388Z,7.40
2018-08-28T03:10:18.370Z,7.80
2018-08-28T03:11:18.362Z,7.80
2018-08-28T03:12:18.343Z,11.30
2018-08-28T03:13:18.331Z,9.60
2018-08-28T03:14:18.319Z,10.10
2018-08-28T03:15:18.305Z,8.40
2018-08-28T03:16:18.290Z,7.10
2018-08-28T03:17:18.278Z,7.90
2018-08-28T03:18:18.263Z,9.60
2018-08-28T03:19:18.248Z,9.70
2018-08-28T03:20:18.236Z,11.40
2018-08-28T03:21:18.226Z,8.70
2018-08-28T03:22:18.218Z,9.60
2018-08-28T03:23:18.192Z,10.00
2018-08-28T03:24:18.179Z,9.30
2018-08-28T03:25:18.167Z,8.60
2018-08-28T03:26:18.152Z,10.10
2018-08-28T03:27:18.141Z,8.70
2018-08-28T03:28:18.125Z,8.90
2018-08-28T03:29:18.117Z,8.10
2018-08-28T03:30:18.104Z,7.40
2018-08-28T03:31:18.086Z,9.60
2018-08-28T03:32:18.072Z,8.90
2018-08-28T03:33:18.056Z,9.00
2018-08-28T03:34:18.042Z,10.20
2018-08-28T03:35:18.034Z,10.30
2018-08-28T03:36:18.018Z,11.10
2018-08-28T03:37:18.000Z,10.10
2018-08-28T03:38:18.007Z,10.80
2018-08-28T03:39:17.974Z,8.80
2018-08-28T03:40:17.964Z,7.70
2018-08-28T03:41:17.950Z,9.90
2018-08-28T03:42:17.935Z,9.70
2018-08-28T03:43:17.922Z,10.40
2018-08-28T03:44:17.906Z,11.70
2018-08-28T03:45:17.891Z,8.50
2018-08-28T03:46:17.882Z,9.60
2018-08-28T03:47:17.861Z,9.70
2018-08-28T03:48:17.851Z,8.80
2018-08-28T03:49:17.834Z,10.80
2018-08-28T03:50:17.820Z,10.30
2018-08-28T03:51:17.807Z,10.50
2018-08-28T03:52:17.794Z,11.70
2018-08-28T03:53:17.778Z,11.00
2018-08-28T03:54:17.770Z,11.70
2018-08-28T03:55:17.762Z,9.60
2018-08-28T03:56:17.741Z,8.60
2018-08-28T03:57:17.724Z,9.90
2018-08-28T03:58:17.710Z,9.30
2018-08-28T03:59:17.698Z,9.20
2018-08-28T04:00:17.683Z,10.10
2018-08-28T04:01:17.669Z,10.50
2018-08-28T04:02:17.656Z,11.40
2018-08-28T04:03:17.646Z,9.00
2018-08-28T04:04:17.639Z,8.90
2018-08-28T04:05:17.614Z,10.80
2018-08-28T04:06:17.605Z,9.70
2018-08-28T04:07:17.586Z,11.40
2018-08-28T04:08:17.573Z,10.90
2018-08-28T04:09:17.559Z,10.00
2018-08-28T04:10:17.546Z,9.30
2018-08-28T04:11:17.538Z,11.50
2018-08-28T04:12:17.519Z,8.00
2018-08-28T04:13:17.507Z,10.60
2018-08-28T04:14:17.489Z,12.00
2018-08-28T04:15:17.485Z,10.50
2018-08-28T04:16:17.464Z,12.90
2018-08-28T04:17:17.448Z,13.80
2018-08-28T04:18:17.434Z,9.80
2018-08-28T04:19:17.420Z,9.10
2018-08-28T04:20:17.410Z,11.60
2018-08-28T04:21:17.397Z,12.00
2018-08-28T04:22:17.380Z,11.40
2018-08-28T04:23:17.367Z,13.10
2018-08-28T04:24:17.352Z,9.30
2018-08-28T04:25:17.338Z,9.90
2018-08-28T04:26:17.323Z,11.10
2018-08-28T04:27:17.308Z,10.30
2018-08-28T04:28:17.298Z,12.10
2018-08-28T04:29:17.282Z,10.80
2018-08-28T04:30:17.294Z,11.60
2018-08-28T04:31:17.258Z,12.30
2018-08-28T04:32:17.244Z,11.40
2018-08-28T04:33:17.230Z,11.30
2018-08-28T04:34:17.215Z,9.90
2018-08-28T04:35:17.203Z,11.30
2018-08-28T04:36:17.186Z,10.40
2018-08-28T04:37:17.175Z,11.10
2018-08-28T04:38:17.172Z,9.30
2018-08-28T04:39:17.149Z,11.00
2018-08-28T04:40:17.133Z,11.10
2018-08-28T04:41:17.127Z,10.10
2018-08-28T04:42:17.124Z,10.20
2018-08-28T04:43:17.092Z,14.00
2018-08-28T04:44:17.078Z,10.20
2018-08-28T04:45:17.068Z,11.70
2018-08-28T04:46:17.053Z,11.10
2018-08-28T04:47:17.041Z,9.00
2018-08-28T04:48:17.022Z,10.40
2018-08-28T04:49:17.010Z,9.00
2018-08-28T04:50:16.997Z,12.60
2018-08-28T04:51:16.988Z,13.90
2018-08-28T04:52:16.969Z,12.80
2018-08-28T04:53:16.955Z,11.20
2018-08-28T04:54:16.955Z,13.30
2018-08-28T04:55:16.929Z,11.10
2018-08-28T04:56:16.911Z,10.30
2018-08-28T04:57:16.901Z,10.90
2018-08-28T04:58:16.885Z,9.40
2018-08-28T04:59:16.874Z,11.40
2018-08-28T05:00:16.860Z,10.70
2018-08-28T05:01:16.843Z,10.70
2018-08-28T05:02:16.830Z,11.30
2018-08-28T05:03:16.817Z,9.50
2018-08-28T05:04:16.802Z,13.30
2018-08-28T05:05:16.789Z,11.00
2018-08-28T05:06:16.777Z,11.20
2018-08-28T05:07:16.760Z,13.10
2018-08-28T05:08:16.747Z,10.00
2018-08-28T05:09:16.732Z,10.70
2018-08-28T05:10:16.725Z,10.60
2018-08-28T05:11:16.705Z,10.00
2018-08-28T05:12:16.695Z,10.60
2018-08-28T05:13:16.678Z,10.30
2018-08-28T05:14:16.664Z,10.10
2018-08-28T05:15:16.651Z,13.30
2018-08-28T05:16:16.646Z,12.10
2018-08-28T05:17:16.622Z,12.10
2018-08-28T05:18:16.610Z,12.90
2018-08-28T05:19:16.677Z,10.50
2018-08-28T05:20:16.589Z,9.60
2018-08-28T05:21:16.566Z,12.40
2018-08-28T05:22:16.553Z,11.20
2018-08-28T05:23:16.538Z,12.20
2018-08-28T05:24:16.526Z,12.00
2018-08-28T05:25:16.513Z,11.50
2018-08-28T05:26:16.502Z,10.70
2018-08-28T05:27:16.486Z,10.80
2018-08-28T05:28:16.473Z,13.60
2018-08-28T05:29:16.457Z,12.00
2018-08-28T05:30:16.504Z,12.40
2018-08-28T05:31:16.431Z,12.60
2018-08-28T05:32:16.416Z,12.70
2018-08-28T05:33:16.401Z,15.10
2018-08-28T05:34:16.388Z,14.00
2018-08-28T05:35:16.373Z,11.10
2018-08-28T05:36:16.362Z,13.40
2018-08-28T05:37:16.352Z,11.70
2018-08-28T05:38:16.339Z,12.60
2018-08-28T05:39:16.318Z,15.80
2018-08-28T05:40:16.304Z,13.60
2018-08-28T05:41:16.293Z,12.60
2018-08-28T05:42:16.282Z,18.90
2018-08-28T05:43:16.265Z,14.20
2018-08-28T05:44:16.250Z,12.20
2018-08-28T05:45:16.237Z,11.60
2018-08-28T05:46:16.226Z,14.80
2018-08-28T05:47:16.207Z,12.60
2018-08-28T05:48:16.246Z,15.30
2018-08-28T05:49:16.186Z,12.00
2018-08-28T05:50:16.169Z,12.80
2018-08-28T05:51:16.153Z,12.30
2018-08-28T05:52:16.143Z,17.00
2018-08-28T05:53:16.130Z,16.70
2018-08-28T05:54:16.110Z,12.80
2018-08-28T05:55:16.098Z,15.90
2018-08-28T05:56:16.097Z,14.50
2018-08-28T05:57:16.073Z,14.90
2018-08-28T05:58:16.058Z,13.30
2018-08-28T05:59:16.048Z,15.30
2018-08-28T06:00:16.033Z,14.60
2018-08-28T06:01:16.021Z,12.60
2018-08-28T06:02:16.008Z,13.10
2018-08-28T06:03:16.121Z,16.70
2018-08-28T06:04:15.979Z,15.90
2018-08-28T06:05:15.976Z,15.40
2018-08-28T06:06:15.952Z,12.20
2018-08-28T06:07:15.936Z,13.20
2018-08-28T06:08:15.927Z,14.30
2018-08-28T06:09:15.911Z,16.10
2018-08-28T06:10:15.902Z,15.10
2018-08-28T06:11:15.885Z,12.20
2018-08-28T06:12:15.873Z,14.80
2018-08-28T06:13:15.863Z,13.70
2018-08-28T06:14:15.853Z,12.30
2018-08-28T06:15:15.831Z,14.50
2018-08-28T06:16:15.819Z,15.40
2018-08-28T06:17:15.804Z,14.60
2018-08-28T06:18:15.793Z,13.80
2018-08-28T06:19:15.781Z,14.00
2018-08-28T06:20:15.767Z,15.30
2018-08-28T06:21:15.756Z,16.20
2018-08-28T06:22:15.740Z,15.70
2018-08-28T06:23:15.727Z,13.30
2018-08-28T06:24:15.714Z,19.10
2018-08-28T06:25:15.701Z,18.00
2018-08-28T06:26:15.695Z,13.70
2018-08-28T06:27:15.675Z,15.50
2018-08-28T06:28:15.663Z,16.10
2018-08-28T06:29:15.657Z,13.80
2018-08-28T06:30:15.639Z,15.90
2018-08-28T06:31:15.619Z,15.60
2018-08-28T06:32:15.609Z,18.60
2018-08-28T06:33:15.593Z,15.10
2018-08-28T06:34:15.583Z,16.90
2018-08-28T06:35:15.566Z,16.80
2018-08-28T06:36:15.562Z,12.40
2018-08-28T06:37:15.596Z,13.50
2018-08-28T06:38:15.529Z,16.50
2018-08-28T06:39:15.513Z,15.10
2018-08-28T06:40:15.505Z,15.60
2018-08-28T06:41:15.487Z,17.90
2018-08-28T06:42:15.475Z,20.10
2018-08-28T06:43:15.465Z,16.60
2018-08-28T06:44:15.452Z,19.50
2018-08-28T06:45:15.436Z,15.90
2018-08-28T06:46:15.421Z,16.80
2018-08-28T06:47:15.412Z,12.80
2018-08-28T06:48:15.397Z,16.20
2018-08-28T06:49:15.383Z,14.70
2018-08-28T06:50:15.369Z,15.40
2018-08-28T06:51:15.359Z,14.20
2018-08-28T06:52:15.340Z,15.50
2018-08-28T06:53:15.328Z,13.10
2018-08-28T06:54:15.319Z,16.80
2018-08-28T06:55:15.303Z,15.60
2018-08-28T06:56:15.292Z,15.10
2018-08-28T06:57:15.277Z,16.10
2018-08-28T06:58:15.264Z,17.20
2018-08-28T06:59:15.250Z,15.50
2018-08-28T07:00:15.245Z,16.40
2018-08-28T07:01:15.227Z,16.00
2018-08-28T07:02:15.228Z,19.20
2018-08-28T07:03:15.197Z,17.10
2018-08-28T07:04:15.184Z,15.20
2018-08-28T07:05:15.172Z,17.40
2018-08-28T07:06:15.163Z,19.00
2018-08-28T07:07:15.144Z,14.80
2018-08-28T07:08:15.131Z,16.40
2018-08-28T07:09:15.120Z,15.50
2018-08-28T07:10:15.135Z,16.00
2018-08-28T07:11:15.093Z,14.50
2018-08-28T07:12:15.081Z,12.80
2018-08-28T07:13:15.068Z,17.10
2018-08-28T07:14:15.058Z,14.60
2018-08-28T07:15:15.043Z,16.10
2018-08-28T07:16:15.030Z,15.40
2018-08-28T07:17:15.021Z,17.60
2018-08-28T07:18:15.004Z,16.80
2018-08-28T07:19:14.989Z,16.90
2018-08-28T07:20:14.980Z,12.80
2018-08-28T07:21:14.964Z,16.90
2018-08-28T07:22:14.951Z,15.40
2018-08-28T07:23:14.942Z,15.70
2018-08-28T07:24:14.930Z,15.90
2018-08-28T07:25:14.912Z,19.80
2018-08-28T07:26:14.900Z,14.90
2018-08-28T07:27:14.891Z,14.30
2018-08-28T07:28:14.881Z,18.80
2018-08-28T07:29:14.865Z,16.30
2018-08-28T07:30:14.850Z,16.60
2018-08-28T07:31:14.842Z,17.20
2018-08-28T07:32:14.826Z,16.70
2018-08-28T07:33:14.813Z,16.60
2018-08-28T07:34:14.805Z,16.10
2018-08-28T07:35:14.788Z,16.40
2018-08-28T07:36:14.779Z,16.70
2018-08-28T07:37:14.765Z,15.10
2018-08-28T07:38:14.748Z,15.90
2018-08-28T07:39:14.737Z,17.20
2018-08-28T07:40:14.726Z,19.00
2018-08-28T07:41:14.712Z,16.20
2018-08-28T07:42:14.698Z,14.30
2018-08-28T07:43:14.688Z,17.00
2018-08-28T07:44:14.677Z,13.70
2018-08-28T07:45:14.661Z,15.50
2018-08-28T07:46:14.652Z,16.10
2018-08-28T07:47:14.638Z,16.00
2018-08-28T07:48:14.670Z,14.30
2018-08-28T07:49:14.611Z,14.70
2018-08-28T07:50:14.598Z,15.30
2018-08-28T07:51:14.586Z,16.20
2018-08-28T07:52:14.582Z,13.30
2018-08-28T07:53:14.561Z,16.60
2018-08-28T07:54:14.549Z,17.00
2018-08-28T07:55:14.538Z,13.60
2018-08-28T07:56:14.522Z,16.90
2018-08-28T07:57:14.514Z,17.30
2018-08-28T07:58:14.499Z,16.20
2018-08-28T07:59:14.492Z,15.40
2018-08-28T08:00:14.473Z,15.20
2018-08-28T08:01:14.472Z,15.30
2018-08-28T08:02:14.449Z,16.30
2018-08-28T08:03:14.436Z,17.60
2018-08-28T08:04:14.468Z,16.80
2018-08-28T08:05:14.410Z,15.90
2018-08-28T08:06:14.405Z,19.90
2018-08-28T08:07:14.390Z,17.60
2018-08-28T08:08:14.380Z,18.80
2018-08-28T08:09:14.368Z,19.30
2018-08-28T08:10:14.403Z,17.50
2018-08-28T08:11:14.343Z,16.80
2018-08-28T08:12:14.331Z,14.40
2018-08-28T08:13:14.320Z,17.20
2018-08-28T08:14:14.307Z,18.70
2018-08-28T08:15:14.302Z,14.90
2018-08-28T08:16:14.417Z,14.80
2018-08-28T08:17:14.267Z,15.50
2018-08-28T08:18:14.262Z,16.60
2018-08-28T08:19:14.244Z,17.20
2018-08-28T08:20:14.232Z,17.40
2018-08-28T08:21:14.225Z,12.90
2018-08-28T08:22:14.298Z,16.40
2018-08-28T08:23:14.205Z,18.00
2018-08-28T08:24:14.188Z,14.60
2018-08-28T08:25:14.173Z,16.30
2018-08-28T08:26:14.164Z,13.70
2018-08-28T08:27:14.151Z,15.00
2018-08-28T08:28:14.366Z,16.40
2018-08-28T08:29:14.129Z,16.50
2018-08-28T08:30:14.120Z,17.60
2018-08-28T08:31:14.114Z,18.90
2018-08-28T08:32:14.098Z,14.60
2018-08-28T08:33:14.087Z,11.90
2018-08-28T08:34:14.076Z,15.10
2018-08-28T08:35:14.100Z,14.40
2018-08-28T08:36:14.058Z,15.90
2018-08-28T08:37:14.041Z,13.60
2018-08-28T08:38:14.030Z,14.30
2018-08-28T08:39:14.024Z,16.90
2018-08-28T08:40:14.009Z,16.70
2018-08-28T08:41:14.002Z,13.20
2018-08-28T08:42:13.995Z,15.50
2018-08-28T08:43:13.989Z,16.10
2018-08-28T08:44:13.976Z,12.10
2018-08-28T08:45:13.958Z,15.10
2018-08-28T08:46:13.948Z,18.40
2018-08-28T08:47:13.939Z,15.40
2018-08-28T08:48:13.927Z,16.50
2018-08-28T08:49:13.919Z,17.00
2018-08-28T08:50:13.913Z,13.20
2018-08-28T08:51:13.921Z,14.70
2018-08-28T08:52:13.887Z,13.10
2018-08-28T08:53:13.880Z,15.60
2018-08-28T08:54:13.865Z,15.80
2018-08-28T08:55:13.861Z,15.40
2018-08-28T08:56:13.847Z,14.80
2018-08-28T08:57:13.913Z,13.70
2018-08-28T08:58:13.828Z,13.70
2018-08-28T08:59:13.820Z,14.40
2018-08-28T09:00:13.807Z,13.20
2018-08-28T09:01:13.797Z,14.70
2018-08-28T09:02:13.790Z,14.60
2018-08-28T09:03:13.778Z,15.00
2018-08-28T09:04:13.766Z,12.70
2018-08-28T09:05:13.757Z,18.50
2018-08-28T09:06:13.933Z,13.10
2018-08-28T09:07:13.739Z,15.60
2018-08-28T09:08:13.730Z,15.90
2018-08-28T09:09:13.730Z,15.70
2018-08-28T09:10:13.717Z,13.70
2018-08-28T09:11:13.699Z,11.60
2018-08-28T09:12:13.758Z,12.50
2018-08-28T09:13:13.683Z,11.50
2018-08-28T09:14:13.679Z,11.50
2018-08-28T09:15:13.666Z,12.60
2018-08-28T09:16:13.650Z,13.40
2018-08-28T09:17:13.640Z,17.10
2018-08-28T09:18:13.630Z,14.30
2018-08-28T09:19:13.665Z,13.90
2018-08-28T09:20:13.611Z,10.90
2018-08-28T09:21:13.604Z,13.70
2018-08-28T09:22:13.597Z,12.40
2018-08-28T09:23:13.584Z,12.00
2018-08-28T09:24:13.572Z,13.00
2018-08-28T09:25:13.563Z,9.80
2018-08-28T09:26:13.558Z,11.90
2018-08-28T09:27:13.548Z,12.00
2018-08-28T09:28:13.546Z,15.10
2018-08-28T09:29:13.523Z,13.20
2018-08-28T09:30:13.516Z,12.50
2018-08-28T09:31:13.529Z,13.70
2018-08-28T09:32:13.549Z,12.00
2018-08-28T09:33:13.487Z,12.60
2018-08-28T09:34:13.478Z,10.70
2018-08-28T09:35:13.466Z,11.70
2018-08-28T09:36:13.456Z,13.90
2018-08-28T09:37:13.456Z,11.10
2018-08-28T09:38:13.450Z,11.30
2018-08-28T09:39:13.424Z,13.30
2018-08-28T09:40:13.418Z,11.70
2018-08-28T09:41:13.408Z,11.70
2018-08-28T09:42:13.401Z,12.00
2018-08-28T09:43:13.392Z,13.20
2018-08-28T09:44:13.379Z,12.20
2018-08-28T09:45:13.369Z,10.50
2018-08-28T09:46:13.362Z,10.30
2018-08-28T09:47:13.346Z,12.60
2018-08-28T09:48:13.507Z,11.70
2018-08-28T09:49:13.325Z,10.80
2018-08-28T09:50:13.399Z,10.90
2018-08-28T09:51:13.307Z,11.30
2018-08-28T09:52:13.297Z,11.00
2018-08-28T09:53:13.290Z,12.30
2018-08-28T09:54:13.278Z,11.90
2018-08-28T09:55:13.268Z,13.70
2018-08-28T09:56:13.252Z,12.90
2018-08-28T09:57:13.247Z,13.40
2018-08-28T09:58:13.238Z,11.80
2018-08-28T09:59:13.222Z,12.70
2018-08-28T10:00:13.216Z,11.00
2018-08-28T10:01:13.204Z,9.30
2018-08-28T10:02:13.194Z,15.70
2018-08-28T10:03:13.182Z,13.90
2018-08-28T10:04:13.173Z,11.00
2018-08-28T10:05:13.162Z,12.90
2018-08-28T10:06:13.155Z,10.50
2018-08-28T10:07:13.147Z,12.10
2018-08-28T10:08:13.134Z,9.90
2018-08-28T10:09:13.121Z,11.10
2018-08-28T10:10:13.110Z,12.70
2018-08-28T10:11:13.098Z,9.10
2018-08-28T10:12:13.088Z,9.90
2018-08-28T10:13:13.086Z,10.10
2018-08-28T10:14:13.066Z,8.80
2018-08-28T10:15:13.063Z,13.80
2018-08-28T10:16:13.044Z,9.10
2018-08-28T10:17:13.050Z,10.20
2018-08-28T10:18:13.026Z,9.70
2018-08-28T10:19:13.014Z,10.10
2018-08-28T10:20:13.003Z,10.80
2018-08-28T10:21:13.002Z,10.50
2018-08-28T10:22:12.982Z,12.70
2018-08-28T10:23:12.972Z,9.60
2018-08-28T10:24:12.957Z,9.00
2018-08-28T10:25:12.950Z,9.50
2018-08-28T10:26:12.945Z,11.00
2018-08-28T10:27:12.928Z,11.90
2018-08-28T10:28:12.916Z,11.70
2018-08-28T10:29:12.905Z,11.30
2018-08-28T10:30:12.905Z,10.60
2018-08-28T10:31:12.885Z,8.90
2018-08-28T10:32:12.875Z,9.80
2018-08-28T10:33:12.862Z,10.90
2018-08-28T10:34:12.854Z,11.50
2018-08-28T10:35:12.839Z,11.80
2018-08-28T10:36:12.829Z,12.40
2018-08-28T10:37:12.820Z,10.80
2018-08-28T10:38:12.893Z,12.60
2018-08-28T10:39:12.795Z,10.20
2018-08-28T10:40:12.784Z,13.40
2018-08-28T10:41:12.774Z,11.20
2018-08-28T10:42:12.765Z,9.80
2018-08-28T10:43:12.754Z,12.60
2018-08-28T10:44:12.742Z,11.40
2018-08-28T10:45:12.736Z,10.30
2018-08-28T10:46:12.771Z,9.40
2018-08-28T10:47:12.708Z,8.40
2018-08-28T10:48:12.695Z,10.70
2018-08-28T10:49:12.687Z,9.40
2018-08-28T10:50:12.676Z,11.60
2018-08-28T10:51:12.665Z,8.70
2018-08-28T10:52:12.654Z,10.40
2018-08-28T10:53:12.640Z,11.00
2018-08-28T10:54:12.628Z,11.60
2018-08-28T10:55:12.619Z,8.70
2018-08-28T10:56:12.614Z,9.60
2018-08-28T10:57:12.601Z,8.80
2018-08-28T10:58:12.591Z,12.60
2018-08-28T10:59:12.572Z,13.20
2018-08-28T11:00:12.564Z,10.20
2018-08-28T11:01:12.559Z,9.30
2018-08-28T11:02:12.546Z,8.10
2018-08-28T11:03:12.528Z,9.40
2018-08-28T11:04:12.520Z,9.10
2018-08-28T11:05:12.512Z,8.10
2018-08-28T11:06:12.497Z,10.60
2018-08-28T11:07:12.485Z,10.50
2018-08-28T11:08:12.476Z,8.60
2018-08-28T11:09:12.466Z,9.20
2018-08-28T11:10:12.455Z,10.20
2018-08-28T11:11:12.440Z,8.50
2018-08-28T11:12:12.430Z,9.70
2018-08-28T11:13:12.419Z,9.30
2018-08-28T11:14:12.423Z,9.10
2018-08-28T11:15:12.403Z,7.80
2018-08-28T11:16:12.466Z,9.70
2018-08-28T11:17:12.377Z,9.00
2018-08-28T11:18:12.372Z,9.00
2018-08-28T11:19:12.357Z,11.10
2018-08-28T11:20:12.345Z,7.30
2018-08-28T11:21:12.335Z,9.80
2018-08-28T11:22:12.332Z,9.30
2018-08-28T11:23:12.313Z,8.50
2018-08-28T11:24:12.307Z,10.60
2018-08-28T11:25:12.306Z,9.70
2018-08-28T11:26:12.286Z,8.50
2018-08-28T11:27:12.278Z,8.10
2018-08-28T11:28:12.265Z,9.00
2018-08-28T11:29:12.251Z,9.00
2018-08-28T11:30:12.241Z,8.90
2018-08-28T11:31:12.286Z,8.40
2018-08-28T11:32:12.228Z,8.80
2018-08-28T11:33:12.214Z,9.70
2018-08-28T11:34:12.208Z,7.50
2018-08-28T11:35:12.203Z,8.70
2018-08-28T11:36:12.183Z,7.10
2018-08-28T11:37:12.178Z,8.30
2018-08-28T11:38:12.176Z,7.50
2018-08-28T11:39:12.158Z,8.60
2018-08-28T11:40:12.146Z,6.40
2018-08-28T11:41:12.139Z,8.10
2018-08-28T11:42:12.139Z,6.60
2018-08-28T11:43:12.124Z,7.60
2018-08-28T11:44:12.111Z,7.10
2018-08-28T11:45:12.103Z,9.50
2018-08-28T11:46:12.099Z,7.20
2018-08-28T11:47:12.175Z,6.00
2018-08-28T11:48:12.078Z,6.30
2018-08-28T11:49:12.069Z,5.70
2018-08-28T11:50:12.064Z,5.40
2018-08-28T11:51:12.050Z,4.90
2018-08-28T11:52:12.087Z,6.10
2018-08-28T11:53:12.040Z,8.10
2018-08-28T11:54:12.027Z,6.00
2018-08-28T11:55:12.021Z,5.30
2018-08-28T11:56:12.012Z,6.70
2018-08-28T11:57:12.002Z,5.60
2018-08-28T11:58:11.994Z,7.00
2018-08-28T11:59:11.986Z,6.10
2018-08-28T12:00:11.982Z,5.40
2018-08-28T12:01:11.970Z,7.00
2018-08-28T12:02:11.963Z,5.90
2018-08-28T12:03:11.953Z,5.60
2018-08-28T12:04:11.953Z,5.60
2018-08-28T12:05:12.044Z,5.30
2018-08-28T12:06:11.932Z,7.00
2018-08-28T12:07:11.948Z,6.90
2018-08-28T12:08:11.920Z,6.90
2018-08-28T12:09:11.909Z,5.70
2018-08-28T12:10:11.908Z,6.70
2018-08-28T12:11:11.895Z,5.10
2018-08-28T12:12:11.891Z,5.10
2018-08-28T12:13:11.890Z,5.80
2018-08-28T12:14:11.873Z,5.00
2018-08-28T12:15:11.876Z,5.10
2018-08-28T12:16:11.859Z,6.80
2018-08-28T12:17:11.850Z,5.60
2018-08-28T12:18:11.849Z,5.60
2018-08-28T12:19:11.846Z,8.30
2018-08-28T12:20:11.830Z,6.10
2018-08-28T12:21:11.821Z,5.30
2018-08-28T12:22:11.815Z,5.70
2018-08-28T12:23:11.807Z,5.70
2018-08-28T12:24:11.801Z,4.90
2018-08-28T12:25:11.794Z,6.00
2018-08-28T12:26:11.784Z,6.40
2018-08-28T12:27:11.787Z,9.10
2018-08-28T12:28:11.771Z,6.10
2018-08-28T12:29:11.761Z,5.20
2018-08-28T12:30:11.755Z,5.00
2018-08-28T12:31:11.743Z,5.40
2018-08-28T12:32:11.737Z,6.80
2018-08-28T12:33:11.728Z,5.70
2018-08-28T12:34:11.720Z,5.90
2018-08-28T12:35:11.706Z,5.60
2018-08-28T12:36:11.701Z,5.40
2018-08-28T12:37:11.779Z,5.70
2018-08-28T12:38:11.683Z,5.60
2018-08-28T12:39:11.673Z,5.90
2018-08-28T12:40:11.663Z,5.50
2018-08-28T12:41:11.657Z,6.60
2018-08-28T12:42:11.655Z,6.10
2018-08-28T12:43:11.640Z,8.50
2018-08-28T12:44:11.767Z,5.80
2018-08-28T12:45:11.637Z,5.60
2018-08-28T12:46:11.641Z,5.80
2018-08-28T12:47:11.613Z,6.40
2018-08-28T12:48:11.593Z,7.10
2018-08-28T12:49:11.587Z,6.50
2018-08-28T12:50:11.575Z,7.00
2018-08-28T12:51:11.585Z,5.60
2018-08-28T12:52:11.562Z,7.60
2018-08-28T12:53:11.551Z,6.30
2018-08-28T12:54:11.543Z,6.50
2018-08-28T12:55:11.544Z,6.00
2018-08-28T12:56:11.525Z,6.20
2018-08-28T12:57:11.516Z,7.40
2018-08-28T12:58:11.507Z,7.50
2018-08-28T12:59:11.502Z,7.20
2018-08-28T13:00:11.492Z,5.50
2018-08-28T13:01:11.496Z,6.10
2018-08-28T13:02:11.487Z,5.70
2018-08-28T13:03:11.464Z,5.20
2018-08-28T13:04:11.456Z,6.00